Time;durP1;ratioP1;P1;durP2;ratioP2;P2;SDS_P1;SDS_P2;PMS_P1;PMS_P2;Temp;Humidity;BMP_temperature;BMP_pressure;BME280_temperature;BME280_humidity;BME280_pressure;Samples;Min_cycle;Max_cycle;Signal;HPM_P1;HPM_P2
2023/06/30 00:00:22;;;;;;;5.63;5.10;;;25.80;56.20;;;;;;5056588;28;20451;-85
2023/06/30 00:02:49;;;;;;;7.00;6.30;;;25.80;55.50;;;;;;5074220;28;21003;-85
2023/06/30 00:05:18;;;;;;;6.77;5.73;;;25.80;55.60;;;;;;5102640;27;20951;-86
2023/06/30 00:07:45;;;;;;;9.30;5.80;;;25.80;55.80;;;;;;5059055;28;20828;-86
2023/06/30 00:10:12;;;;;;;6.60;5.90;;;25.70;56.00;;;;;;5046403;28;20484;-85
2023/06/30 00:12:39;;;;;;;7.70;6.67;;;25.70;56.00;;;;;;5092909;28;20466;-86
2023/06/30 00:15:07;;;;;;;7.18;6.47;;;25.70;55.60;;;;;;5075711;28;20555;-85
2023/06/30 00:17:34;;;;;;;6.60;5.70;;;25.60;56.00;;;;;;5077664;28;20284;-84
2023/06/30 00:20:05;;;;;;;6.33;5.73;;;25.70;56.20;;;;;;5068813;28;20458;-86
2023/06/30 00:22:35;;;;;;;6.70;6.00;;;25.60;56.00;;;;;;5061452;28;20482;-85
2023/06/30 00:25:03;;;;;;;7.97;7.17;;;25.60;56.00;;;;;;5083146;28;20597;-84
2023/06/30 00:27:30;;;;;;;7.50;6.77;;;25.50;55.90;;;;;;5092046;27;20456;-85
2023/06/30 00:29:57;;;;;;;7.00;6.30;;;25.50;56.20;;;;;;5050723;28;20450;-85
2023/06/30 00:32:24;;;;;;;7.37;6.67;;;25.50;56.60;;;;;;5059472;27;21013;-87
2023/06/30 00:34:51;;;;;;;8.50;6.83;;;25.50;56.80;;;;;;5073055;28;20542;-85
2023/06/30 00:37:18;;;;;;;6.97;6.30;;;25.40;56.80;;;;;;5066588;28;20486;-85
2023/06/30 00:39:46;;;;;;;7.37;6.67;;;25.40;56.60;;;;;;5069377;28;20459;-85
2023/06/30 00:42:13;;;;;;;7.27;6.40;;;25.30;56.40;;;;;;5074095;28;20654;-84
2023/06/30 00:44:40;;;;;;;7.63;6.40;;;25.20;56.70;;;;;;5068015;28;20444;-86
2023/06/30 00:47:07;;;;;;;7.37;6.67;;;24.70;58.20;;;;;;5049514;28;21226;-85
2023/06/30 00:49:35;;;;;;;7.50;6.63;;;24.30;59.20;;;;;;5050866;28;20440;-85
2023/06/30 00:52:02;;;;;;;7.47;6.70;;;24.50;58.50;;;;;;5046366;28;20475;-86
2023/06/30 00:54:29;;;;;;;8.77;5.80;;;24.70;57.50;;;;;;5089626;28;20483;-85
2023/06/30 00:56:59;;;;;;;8.53;7.03;;;24.80;57.40;;;;;;5061674;28;20454;-85
2023/06/30 00:59:26;;;;;;;8.60;6.45;;;24.90;57.80;;;;;;5049293;28;20449;-85
2023/06/30 01:01:57;;;;;;;6.70;6.10;;;25.00;57.40;;;;;;5066476;28;20311;-84
2023/06/30 01:04:35;;;;;;;6.63;6.13;;;25.00;57.20;;;;;;5089800;28;20452;-84
2023/06/30 01:07:09;;;;;;;7.47;6.70;;;25.00;57.20;;;;;;5050586;28;20443;-86
2023/06/30 01:09:39;;;;;;;6.85;6.15;;;24.90;57.70;;;;;;5093773;28;20454;-84
2023/06/30 01:12:10;;;;;;;6.83;6.10;;;24.70;57.90;;;;;;5058135;28;20213;-86
2023/06/30 01:14:38;;;;;;;6.90;6.20;;;24.80;57.70;;;;;;5072572;28;20999;-85
2023/06/30 01:17:07;;;;;;;6.80;6.10;;;24.80;58.10;;;;;;5044210;27;20216;-86
2023/06/30 01:19:38;;;;;;;7.37;6.53;;;24.90;57.60;;;;;;5091600;27;20447;-85
2023/06/30 01:22:13;;;;;;;11.00;6.73;;;24.90;57.70;;;;;;5073560;28;20508;-86
2023/06/30 01:24:43;;;;;;;7.77;6.97;;;24.90;57.70;;;;;;5068814;28;20857;-86
2023/06/30 01:27:13;;;;;;;6.87;6.27;;;25.00;57.80;;;;;;5076187;28;20452;-84
2023/06/30 01:29:42;;;;;;;7.63;5.93;;;24.90;57.70;;;;;;5058942;28;21392;-86
2023/06/30 01:32:09;;;;;;;6.97;6.30;;;25.00;57.60;;;;;;5072661;28;21060;-85
2023/06/30 01:34:37;;;;;;;10.93;7.03;;;25.00;57.40;;;;;;5074468;28;20459;-85
2023/06/30 01:37:05;;;;;;;8.67;5.83;;;24.90;57.60;;;;;;5059048;28;20442;-86
2023/06/30 01:39:32;;;;;;;7.70;6.83;;;24.90;57.20;;;;;;5064921;28;20922;-85
2023/06/30 01:42:00;;;;;;;9.00;7.17;;;24.80;57.20;;;;;;5084377;28;20467;-87
2023/06/30 01:44:29;;;;;;;7.63;6.93;;;24.80;57.40;;;;;;5091960;27;21938;-85
2023/06/30 01:46:56;;;;;;;8.20;7.10;;;24.80;57.70;;;;;;5064291;28;20456;-86
2023/06/30 01:49:25;;;;;;;8.43;6.10;;;24.80;57.70;;;;;;5078916;28;20440;-85
2023/06/30 01:51:52;;;;;;;7.53;6.83;;;24.70;57.60;;;;;;5060960;28;20467;-86
2023/06/30 01:54:19;;;;;;;15.60;7.10;;;24.70;57.50;;;;;;5061861;28;20454;-85
2023/06/30 01:56:50;;;;;;;7.00;6.13;;;24.70;57.60;;;;;;5068290;28;20467;-85
2023/06/30 01:59:18;;;;;;;10.03;6.80;;;24.70;57.40;;;;;;5042561;28;20455;-85
2023/06/30 02:01:47;;;;;;;6.57;5.93;;;24.70;57.30;;;;;;5052206;28;20464;-83
2023/06/30 02:04:14;;;;;;;6.33;5.73;;;24.60;57.00;;;;;;5061756;28;20560;-86
2023/06/30 02:06:44;;;;;;;9.50;6.10;;;24.60;57.20;;;;;;5075473;28;20935;-85
2023/06/30 02:09:12;;;;;;;6.43;5.80;;;24.60;57.20;;;;;;5080452;28;20539;-85
2023/06/30 02:11:38;;;;;;;6.87;6.23;;;24.60;57.10;;;;;;5050572;28;21007;-85
2023/06/30 02:14:06;;;;;;;7.70;6.30;;;24.60;57.40;;;;;;5067358;28;20538;-85
2023/06/30 02:16:33;;;;;;;9.60;7.95;;;24.60;57.40;;;;;;5051742;28;20464;-86
2023/06/30 02:19:01;;;;;;;10.50;6.60;;;24.50;57.90;;;;;;5051061;28;20714;-85
2023/06/30 02:21:28;;;;;;;7.57;6.77;;;24.50;58.10;;;;;;5047074;28;22122;-85
2023/06/30 02:23:55;;;;;;;6.47;5.87;;;24.50;58.00;;;;;;5068433;28;21128;-85
2023/06/30 02:26:23;;;;;;;8.23;7.00;;;24.50;57.70;;;;;;5051039;28;20565;-86
2023/06/30 02:28:50;;;;;;;7.37;6.67;;;24.40;57.30;;;;;;5062815;28;20459;-85
2023/06/30 02:31:17;;;;;;;10.33;6.60;;;24.30;57.50;;;;;;5073398;28;20515;-85
2023/06/30 02:33:44;;;;;;;8.83;7.60;;;24.20;57.00;;;;;;5065048;28;20443;-84
2023/06/30 02:36:12;;;;;;;10.57;7.13;;;24.10;58.30;;;;;;5082090;28;20471;-85
2023/06/30 02:38:39;;;;;;;8.60;6.80;;;24.00;58.50;;;;;;5065063;28;20447;-88
2023/06/30 02:41:06;;;;;;;9.90;8.70;;;24.00;57.80;;;;;;5059803;28;20447;-85
2023/06/30 02:43:33;;;;;;;7.50;6.70;;;23.90;59.20;;;;;;5049912;28;20502;-85
2023/06/30 02:46:00;;;;;;;9.57;8.20;;;23.90;58.70;;;;;;5066368;28;20549;-84
2023/06/30 02:48:28;;;;;;;10.30;8.10;;;23.90;59.10;;;;;;5048375;28;20482;-85
2023/06/30 02:50:56;;;;;;;11.67;7.50;;;23.90;58.90;;;;;;5107796;27;20440;-85
2023/06/30 02:53:25;;;;;;;10.53;8.17;;;24.00;59.00;;;;;;5056469;28;20921;-85
2023/06/30 02:55:52;;;;;;;10.23;9.23;;;24.00;58.90;;;;;;5036603;28;20467;-85
2023/06/30 02:58:20;;;;;;;11.23;7.50;;;24.00;58.80;;;;;;5076735;28;20498;-84
2023/06/30 03:00:47;;;;;;;8.20;7.40;;;24.10;58.70;;;;;;5072470;28;20964;-84
2023/06/30 03:03:14;;;;;;;12.10;8.23;;;24.10;58.50;;;;;;5050765;28;20470;-86
2023/06/30 03:05:42;;;;;;;11.30;8.43;;;24.10;57.70;;;;;;5047110;28;20499;-86
2023/06/30 03:08:11;;;;;;;8.50;7.60;;;24.10;57.70;;;;;;5057775;28;20452;-86
2023/06/30 03:10:40;;;;;;;10.57;8.43;;;24.10;58.00;;;;;;5063640;28;20193;-85
2023/06/30 03:13:07;;;;;;;12.23;7.70;;;24.10;58.20;;;;;;5104934;27;20499;-84
2023/06/30 03:15:34;;;;;;;8.70;7.90;;;24.10;58.00;;;;;;5044408;28;20463;-86
2023/06/30 03:18:01;;;;;;;9.13;7.67;;;24.10;58.00;;;;;;5047978;28;20864;-84
2023/06/30 03:20:28;;;;;;;8.80;7.47;;;24.10;58.00;;;;;;5049316;28;20463;-85
2023/06/30 03:22:55;;;;;;;9.63;7.47;;;24.10;58.00;;;;;;5041344;28;20214;-86
2023/06/30 03:25:22;;;;;;;8.30;7.30;;;24.10;58.20;;;;;;5081046;28;20443;-85
2023/06/30 03:27:50;;;;;;;7.67;6.87;;;24.10;58.20;;;;;;5053312;28;20455;-85
2023/06/30 03:30:17;;;;;;;9.13;6.57;;;24.00;58.20;;;;;;5073014;28;21064;-85
2023/06/30 03:32:46;;;;;;;8.63;7.73;;;24.00;58.10;;;;;;5090563;28;20474;-85
2023/06/30 03:35:14;;;;;;;9.87;7.83;;;24.00;58.00;;;;;;5070460;28;20448;-85
2023/06/30 03:37:41;;;;;;;7.37;6.67;;;24.00;58.30;;;;;;5047298;28;20444;-84
2023/06/30 03:40:09;;;;;;;9.03;6.80;;;24.00;58.40;;;;;;5058242;28;20446;-84
2023/06/30 03:42:37;;;;;;;7.70;6.87;;;24.00;58.50;;;;;;5042609;28;20467;-85
2023/06/30 03:45:06;;;;;;;7.47;6.60;;;24.00;58.40;;;;;;5082013;28;20457;-84
2023/06/30 03:47:34;;;;;;;8.67;7.77;;;24.00;58.60;;;;;;5062198;28;20937;-85
2023/06/30 03:50:01;;;;;;;11.57;8.07;;;23.90;58.70;;;;;;5050709;28;20465;-86
2023/06/30 03:52:28;;;;;;;9.10;7.57;;;23.90;58.80;;;;;;5060985;28;20552;-85
2023/06/30 03:54:55;;;;;;;11.87;7.57;;;23.90;58.30;;;;;;5085328;28;20451;-86
2023/06/30 03:57:21;;;;;;;8.07;7.27;;;23.90;58.20;;;;;;5061329;28;20478;-86
2023/06/30 03:59:48;;;;;;;8.70;7.67;;;23.90;58.30;;;;;;5078775;28;20458;-86
2023/06/30 04:02:17;;;;;;;8.67;7.77;;;23.90;58.40;;;;;;5052536;28;20459;-86
2023/06/30 04:04:44;;;;;;;12.73;7.87;;;23.80;58.60;;;;;;5085602;28;20485;-86
2023/06/30 04:07:11;;;;;;;8.77;7.87;;;23.80;58.60;;;;;;5048314;28;20443;-84
2023/06/30 04:09:38;;;;;;;9.90;8.40;;;23.90;58.40;;;;;;5063728;28;20439;-85
2023/06/30 04:12:06;;;;;;;10.50;8.40;;;23.90;58.40;;;;;;5076274;28;21002;-85
2023/06/30 04:14:33;;;;;;;10.50;8.37;;;24.00;58.30;;;;;;5049694;28;20451;-85
2023/06/30 04:17:00;;;;;;;9.90;7.83;;;23.90;58.30;;;;;;5052003;28;20467;-85
2023/06/30 04:19:28;;;;;;;10.00;8.67;;;23.90;58.40;;;;;;5095076;28;20828;-86
2023/06/30 04:21:55;;;;;;;11.37;8.43;;;23.90;58.40;;;;;;5107989;27;20475;-85
2023/06/30 04:24:22;;;;;;;9.40;8.40;;;23.90;58.60;;;;;;5085462;28;20458;-86
2023/06/30 04:26:49;;;;;;;10.80;8.27;;;23.90;58.50;;;;;;5075279;28;20487;-86
2023/06/30 04:29:16;;;;;;;8.83;7.93;;;24.00;58.60;;;;;;5049242;28;20459;-86
2023/06/30 04:31:43;;;;;;;8.13;7.30;;;24.00;58.60;;;;;;5053371;28;20957;-86
2023/06/30 04:34:10;;;;;;;8.10;6.93;;;24.00;58.70;;;;;;5039586;28;20937;-87
2023/06/30 04:36:39;;;;;;;10.53;6.90;;;24.10;58.80;;;;;;5072803;27;20218;-87
2023/06/30 04:39:06;;;;;;;10.00;6.90;;;24.10;58.60;;;;;;5046165;28;20440;-88
2023/06/30 04:41:33;;;;;;;12.63;7.13;;;24.10;58.40;;;;;;5051159;28;21051;-86
2023/06/30 04:44:00;;;;;;;7.80;7.00;;;24.10;58.10;;;;;;5045404;28;20943;-87
2023/06/30 04:46:28;;;;;;;9.20;7.20;;;24.10;58.10;;;;;;5045668;28;20484;-87
2023/06/30 04:48:55;;;;;;;13.60;7.30;;;24.00;58.00;;;;;;5045732;28;20666;-87
2023/06/30 04:51:22;;;;;;;8.27;7.40;;;24.00;58.30;;;;;;5047868;28;20466;-86
2023/06/30 04:53:51;;;;;;;9.07;6.97;;;24.00;58.60;;;;;;5058654;28;20522;-86
2023/06/30 04:56:19;;;;;;;9.57;6.97;;;24.10;58.30;;;;;;5061820;28;20468;-86
2023/06/30 04:58:46;;;;;;;9.90;6.93;;;24.10;58.40;;;;;;5069588;28;20942;-86
2023/06/30 05:01:14;;;;;;;9.33;7.43;;;24.10;58.20;;;;;;5091455;27;20446;-86
2023/06/30 05:03:41;;;;;;;7.90;6.90;;;24.00;58.40;;;;;;5072921;28;20515;-86
2023/06/30 05:06:08;;;;;;;12.38;7.97;;;24.10;58.70;;;;;;5088754;28;20470;-87
2023/06/30 05:08:35;;;;;;;10.05;7.35;;;24.10;58.40;;;;;;5067568;28;20197;-86
2023/06/30 05:11:03;;;;;;;11.77;7.60;;;24.10;58.20;;;;;;5057326;28;20198;-86
2023/06/30 05:13:30;;;;;;;9.20;7.00;;;24.10;58.40;;;;;;5064139;27;21015;-86
2023/06/30 05:15:57;;;;;;;9.00;7.57;;;24.10;58.30;;;;;;5060272;28;20463;-87
2023/06/30 05:18:27;;;;;;;7.97;7.17;;;24.10;58.40;;;;;;5050163;28;20564;-86
2023/06/30 05:20:55;;;;;;;9.23;7.20;;;24.10;58.30;;;;;;5071227;28;20452;-87
2023/06/30 05:23:25;;;;;;;9.83;7.63;;;24.20;58.50;;;;;;5087670;27;20547;-86
2023/06/30 05:25:52;;;;;;;9.90;8.07;;;24.20;58.30;;;;;;5055406;28;20447;-86
2023/06/30 05:28:22;;;;;;;7.63;6.73;;;24.30;58.30;;;;;;5073274;28;20573;-86
2023/06/30 05:30:49;;;;;;;10.43;7.90;;;24.30;58.10;;;;;;5037093;28;20516;-86
2023/06/30 05:33:16;;;;;;;9.77;7.43;;;24.20;58.20;;;;;;5047107;28;20468;-86
2023/06/30 05:35:43;;;;;;;8.33;7.43;;;24.10;58.30;;;;;;5080004;28;20458;-86
2023/06/30 05:38:11;;;;;;;8.27;7.43;;;24.20;58.50;;;;;;5047129;28;20463;-86
2023/06/30 05:40:38;;;;;;;8.60;7.70;;;24.20;58.80;;;;;;5083810;28;20562;-86
2023/06/30 05:43:05;;;;;;;9.80;6.53;;;24.20;57.90;;;;;;5061723;28;20886;-86
2023/06/30 05:45:34;;;;;;;8.30;7.38;;;24.10;58.20;;;;;;5074697;28;20484;-85
2023/06/30 05:48:01;;;;;;;14.43;7.87;;;24.10;59.00;;;;;;5054416;28;20250;-87
2023/06/30 05:50:28;;;;;;;11.47;7.73;;;24.00;58.80;;;;;;5063674;28;20894;-86
2023/06/30 05:52:56;;;;;;;9.95;7.85;;;24.00;59.00;;;;;;5074778;28;20463;-85
2023/06/30 05:55:22;;;;;;;12.00;8.00;;;23.80;59.10;;;;;;5054202;27;20197;-84
2023/06/30 05:57:49;;;;;;;10.95;7.80;;;23.80;59.70;;;;;;5087085;28;20502;-86
2023/06/30 06:00:18;;;;;;;9.90;8.40;;;23.70;59.80;;;;;;5061784;28;20204;-85
2023/06/30 06:02:46;;;;;;;9.00;7.80;;;23.60;60.30;;;;;;5072725;28;20475;-85
2023/06/30 06:05:13;;;;;;;9.20;7.77;;;23.70;61.10;;;;;;5080311;28;20973;-84
2023/06/30 06:07:41;;;;;;;10.70;7.57;;;23.90;61.10;;;;;;5047582;28;20451;-85
2023/06/30 06:10:08;;;;;;;9.60;8.00;;;24.10;61.30;;;;;;5079312;28;20525;-84
2023/06/30 06:12:35;;;;;;;10.65;7.57;;;24.20;60.10;;;;;;5038007;28;20465;-85
2023/06/30 06:15:03;;;;;;;10.40;8.53;;;24.30;59.60;;;;;;5041266;28;20200;-85
2023/06/30 06:17:30;;;;;;;12.10;8.53;;;24.40;59.10;;;;;;5068395;28;20502;-85
2023/06/30 06:19:59;;;;;;;9.02;7.43;;;24.40;59.20;;;;;;5068753;28;20446;-85
2023/06/30 06:22:26;;;;;;;8.10;7.23;;;24.50;59.30;;;;;;5086534;27;20299;-85
2023/06/30 06:24:53;;;;;;;10.40;8.00;;;24.70;59.10;;;;;;5085578;28;20459;-84
2023/06/30 06:27:20;;;;;;;9.63;7.33;;;24.80;58.80;;;;;;5063114;28;20515;-85
2023/06/30 06:29:47;;;;;;;10.93;8.17;;;24.40;56.50;;;;;;5083591;28;20463;-86
2023/06/30 06:32:14;;;;;;;9.83;7.70;;;24.40;57.60;;;;;;5056412;28;20489;-86
2023/06/30 06:34:41;;;;;;;8.30;7.43;;;24.50;58.20;;;;;;5087239;28;20456;-85
2023/06/30 06:37:09;;;;;;;12.57;8.23;;;24.60;58.30;;;;;;5075131;28;20464;-86
2023/06/30 06:39:36;;;;;;;10.60;8.40;;;24.60;58.60;;;;;;5069583;28;21150;-87
2023/06/30 06:42:04;;;;;;;10.40;8.20;;;24.70;58.60;;;;;;5064561;28;20464;-87
2023/06/30 06:44:31;;;;;;;10.20;7.70;;;25.00;58.40;;;;;;5047385;28;20435;-88
2023/06/30 06:47:31;;;;;;;11.43;7.77;;;25.10;57.70;;;;;;5062642;28;20441;-88
2023/06/30 06:49:59;;;;;;;8.40;7.57;;;25.20;57.90;;;;;;5069761;28;20453;-88
2023/06/30 06:52:27;;;;;;;8.03;7.10;;;25.10;57.40;;;;;;5073335;28;20474;-87
2023/06/30 06:54:54;;;;;;;11.87;8.63;;;25.00;57.40;;;;;;5089926;28;20470;-87
2023/06/30 06:57:22;;;;;;;11.60;8.77;;;25.00;57.70;;;;;;5088199;28;20491;-87
2023/06/30 06:59:49;;;;;;;11.00;8.00;;;25.10;57.80;;;;;;5061837;28;20438;-88
2023/06/30 07:02:16;;;;;;;9.87;8.70;;;25.10;57.30;;;;;;5082733;28;20578;-89
2023/06/30 07:04:43;;;;;;;11.93;8.63;;;25.00;57.60;;;;;;5050650;28;20453;-88
2023/06/30 07:07:10;;;;;;;9.80;8.50;;;25.10;58.20;;;;;;5072987;28;21091;-87
2023/06/30 07:09:39;;;;;;;11.93;8.13;;;25.30;58.00;;;;;;5082825;28;20466;-87
2023/06/30 07:12:06;;;;;;;11.70;8.50;;;25.30;57.80;;;;;;5045784;28;20218;-88
2023/06/30 07:14:35;;;;;;;8.90;8.00;;;25.30;57.90;;;;;;5044402;28;20459;-88
2023/06/30 07:17:06;;;;;;;11.80;8.53;;;25.40;58.20;;;;;;5087964;28;20474;-88
2023/06/30 07:19:33;;;;;;;14.27;8.52;;;25.40;58.10;;;;;;5070869;28;20449;-88
2023/06/30 07:22:01;;;;;;;12.17;7.73;;;25.50;58.10;;;;;;5062561;28;20218;-87
2023/06/30 07:24:28;;;;;;;10.00;7.60;;;25.80;57.80;;;;;;5069489;28;20543;-87
2023/06/30 07:26:58;;;;;;;11.20;7.83;;;25.80;57.20;;;;;;5049854;28;20447;-88
2023/06/30 07:29:26;;;;;;;14.97;8.20;;;25.90;57.50;;;;;;5042542;28;20978;-87
2023/06/30 07:31:53;;;;;;;15.30;9.15;;;26.10;57.30;;;;;;5063883;28;22156;-87
2023/06/30 07:34:23;;;;;;;11.30;8.53;;;26.20;57.00;;;;;;5047561;28;20675;-87
2023/06/30 07:36:51;;;;;;;14.10;9.37;;;26.20;56.90;;;;;;5081456;28;21090;-88
2023/06/30 07:39:19;;;;;;;13.27;7.70;;;26.20;57.10;;;;;;5072457;28;20454;-88
2023/06/30 07:41:51;;;;;;;12.93;8.67;;;26.30;57.30;;;;;;5050293;28;20478;-88
2023/06/30 07:44:20;;;;;;;19.80;8.00;;;26.30;57.00;;;;;;5048970;28;20440;-88
2023/06/30 07:46:47;;;;;;;16.73;8.85;;;26.40;56.90;;;;;;5079719;28;20542;-86
2023/06/30 07:49:16;;;;;;;10.50;8.37;;;26.50;56.90;;;;;;5050373;28;20206;-88
2023/06/30 07:51:45;;;;;;;16.60;8.33;;;26.60;56.10;;;;;;5049889;28;20581;-88
2023/06/30 07:54:12;;;;;;;8.67;7.00;;;26.60;55.20;;;;;;5044263;28;20462;-89
2023/06/30 07:56:39;;;;;;;17.95;6.97;;;26.50;55.10;;;;;;5047695;28;20541;-89
2023/06/30 07:59:06;;;;;;;12.43;7.65;;;26.50;55.90;;;;;;5073295;28;20299;-89
2023/06/30 08:01:35;;;;;;;10.95;8.00;;;26.60;55.60;;;;;;5074509;28;20474;-89
2023/06/30 08:04:03;;;;;;;11.53;7.30;;;26.80;55.40;;;;;;5078221;28;20612;-89
2023/06/30 08:06:30;;;;;;;9.60;8.20;;;26.90;54.20;;;;;;5057066;28;20499;-89
2023/06/30 08:08:57;;;;;;;11.90;8.63;;;26.90;53.70;;;;;;5047045;28;20456;-87
2023/06/30 08:11:25;;;;;;;10.40;7.80;;;26.80;54.30;;;;;;5054684;28;20529;-88
2023/06/30 08:13:55;;;;;;;8.07;7.03;;;26.90;54.30;;;;;;5043737;28;20638;-88
2023/06/30 08:16:23;;;;;;;20.93;7.60;;;27.00;54.20;;;;;;5074602;28;20462;-87
2023/06/30 08:18:53;;;;;;;11.87;7.60;;;27.00;54.10;;;;;;5041434;28;20466;-88
2023/06/30 08:21:20;;;;;;;9.75;7.28;;;27.10;54.20;;;;;;5082259;28;20489;-87
2023/06/30 08:23:48;;;;;;;9.37;7.00;;;27.10;54.20;;;;;;5067552;28;20194;-87
2023/06/30 08:26:16;;;;;;;6.50;5.90;;;27.20;54.30;;;;;;5061657;28;21128;-88
2023/06/30 08:28:43;;;;;;;9.97;7.50;;;27.20;54.30;;;;;;5075213;28;20436;-87
2023/06/30 08:31:10;;;;;;;8.27;6.00;;;27.20;53.60;;;;;;5051904;28;20462;-86
2023/06/30 08:33:37;;;;;;;6.57;5.97;;;27.10;53.10;;;;;;5070941;28;20540;-89
2023/06/30 08:36:06;;;;;;;10.17;6.90;;;27.10;53.60;;;;;;5072036;28;20470;-89
2023/06/30 08:38:33;;;;;;;7.37;6.53;;;27.10;53.90;;;;;;5076973;28;20946;-88
2023/06/30 08:41:02;;;;;;;7.77;6.97;;;27.10;53.60;;;;;;5072399;28;20454;-89
2023/06/30 08:43:32;;;;;;;9.43;6.73;;;27.10;54.00;;;;;;5071413;28;20503;-89
2023/06/30 08:46:01;;;;;;;8.63;6.80;;;27.10;53.70;;;;;;5083654;28;20515;-90
2023/06/30 08:48:30;;;;;;;8.53;7.10;;;27.10;54.00;;;;;;5077821;28;20531;-89
2023/06/30 08:50:59;;;;;;;7.40;6.70;;;27.20;54.10;;;;;;5095000;28;20452;-89
2023/06/30 08:53:28;;;;;;;10.10;7.00;;;27.30;54.30;;;;;;5077328;28;21137;-89
2023/06/30 08:55:58;;;;;;;12.40;7.23;;;27.40;54.70;;;;;;5086107;28;20542;-89
2023/06/30 08:58:26;;;;;;;8.17;7.03;;;27.40;54.80;;;;;;5084458;27;20849;-89
2023/06/30 09:00:54;;;;;;;11.13;6.73;;;27.50;54.70;;;;;;5081922;28;21027;-89
2023/06/30 09:03:22;;;;;;;8.00;7.20;;;27.50;54.50;;;;;;5054380;28;20463;-88
2023/06/30 09:05:53;;;;;;;7.63;6.90;;;27.50;53.50;;;;;;5078080;28;20545;-89
2023/06/30 09:08:23;;;;;;;8.40;7.50;;;27.50;53.80;;;;;;5069338;28;20908;-89
2023/06/30 09:10:52;;;;;;;7.90;7.10;;;27.40;53.90;;;;;;5079652;28;20527;-89
2023/06/30 09:13:21;;;;;;;8.80;7.40;;;27.30;54.10;;;;;;5092789;28;20463;-89
2023/06/30 09:15:48;;;;;;;8.77;7.87;;;27.40;54.40;;;;;;5060678;28;20474;-89
2023/06/30 09:18:15;;;;;;;7.97;7.30;;;27.60;53.90;;;;;;5077356;28;21051;-88
2023/06/30 09:20:42;;;;;;;8.23;7.43;;;27.80;52.70;;;;;;5068361;28;20501;-89
2023/06/30 09:23:10;;;;;;;9.57;7.40;;;27.80;52.90;;;;;;5078087;27;20476;-88
2023/06/30 09:25:41;;;;;;;8.43;7.53;;;27.90;53.00;;;;;;5076585;28;20866;-88
2023/06/30 09:28:14;;;;;;;9.00;7.63;;;27.90;52.30;;;;;;5062653;28;20443;-88
2023/06/30 09:30:45;;;;;;;8.67;7.77;;;27.90;52.00;;;;;;5081668;28;20480;-89
2023/06/30 09:33:15;;;;;;;8.80;7.87;;;27.70;52.00;;;;;;5078560;28;20972;-89
2023/06/30 09:35:43;;;;;;;10.80;7.93;;;27.80;52.00;;;;;;5067261;28;20447;-89
2023/06/30 09:38:15;;;;;;;8.60;7.70;;;27.90;52.30;;;;;;5057757;28;20474;-89
2023/06/30 09:40:46;;;;;;;9.07;8.23;;;27.90;52.30;;;;;;5053374;28;20439;-89
2023/06/30 09:43:19;;;;;;;10.60;7.93;;;27.90;52.60;;;;;;5058263;28;20471;-88
2023/06/30 09:45:48;;;;;;;9.15;8.10;;;28.10;51.70;;;;;;5080723;28;20458;-88
2023/06/30 09:48:15;;;;;;;10.13;9.13;;;28.20;51.90;;;;;;5068273;28;20186;-88
2023/06/30 09:50:43;;;;;;;8.80;7.97;;;28.30;52.70;;;;;;5052087;28;20458;-88
2023/06/30 09:53:10;;;;;;;10.17;7.63;;;28.30;51.50;;;;;;5083334;27;20496;-89
2023/06/30 09:55:48;;;;;;;8.10;7.33;;;28.30;51.00;;;;;;5097102;28;20444;-88
2023/06/30 09:58:16;;;;;;;8.47;7.67;;;28.20;49.90;;;;;;5065455;28;20458;-88
2023/06/30 10:00:45;;;;;;;8.20;7.37;;;28.20;50.90;;;;;;5070776;28;20847;-89
2023/06/30 10:03:16;;;;;;;8.10;7.30;;;28.30;50.00;;;;;;5049167;28;20467;-87
2023/06/30 10:05:44;;;;;;;14.40;8.57;;;28.70;49.90;;;;;;5065569;28;21305;-89
2023/06/30 10:08:13;;;;;;;8.73;7.83;;;29.00;49.40;;;;;;5087247;28;20500;-89
2023/06/30 10:10:42;;;;;;;8.87;7.60;;;29.20;49.10;;;;;;5077315;28;20443;-89
2023/06/30 10:13:09;;;;;;;7.70;6.73;;;29.40;49.10;;;;;;5091848;28;20979;-89
2023/06/30 10:15:37;;;;;;;9.50;7.30;;;29.50;48.50;;;;;;5082390;28;20450;-91
2023/06/30 10:18:09;;;;;;;13.80;8.60;;;29.40;47.60;;;;;;5047480;28;20852;-90
2023/06/30 10:20:36;;;;;;;10.53;9.07;;;28.80;47.20;;;;;;5051024;27;20929;-87
2023/06/30 10:23:05;;;;;;;10.70;8.87;;;28.50;48.60;;;;;;5048769;28;20471;-89
2023/06/30 10:25:34;;;;;;;13.60;9.20;;;28.50;48.80;;;;;;5083048;28;20448;-86
2023/06/30 10:28:01;;;;;;;10.53;9.20;;;28.50;49.00;;;;;;5063993;28;20459;-86
2023/06/30 10:30:30;;;;;;;12.47;9.13;;;28.60;48.60;;;;;;5087993;27;20512;-88
2023/06/30 10:32:57;;;;;;;14.30;9.93;;;28.30;48.20;;;;;;5041862;28;20475;-86
2023/06/30 10:35:26;;;;;;;13.13;8.70;;;28.30;49.60;;;;;;5087808;28;21022;-88
2023/06/30 10:37:55;;;;;;;13.30;10.10;;;28.40;49.40;;;;;;5055577;28;20895;-89
2023/06/30 10:40:26;;;;;;;17.33;10.87;;;28.30;49.00;;;;;;5045900;28;20446;-88
2023/06/30 10:42:55;;;;;;;11.37;9.63;;;28.30;48.30;;;;;;5046767;28;20467;-89
2023/06/30 10:45:28;;;;;;;13.38;10.80;;;28.20;49.00;;;;;;5059365;28;20449;-87
2023/06/30 10:47:55;;;;;;;16.63;10.87;;;28.20;49.40;;;;;;5048311;28;20206;-89
2023/06/30 10:50:23;;;;;;;15.17;11.03;;;28.10;48.80;;;;;;5070679;28;20491;-88
2023/06/30 10:52:53;;;;;;;15.60;11.20;;;28.00;49.90;;;;;;5049391;28;20586;-87
2023/06/30 10:55:21;;;;;;;17.13;11.53;;;28.00;49.90;;;;;;5048028;28;20447;-88
2023/06/30 10:57:53;;;;;;;16.53;11.13;;;27.70;50.00;;;;;;5060810;28;20475;-89
2023/06/30 11:00:24;;;;;;;15.20;12.03;;;27.50;50.70;;;;;;5043539;28;20450;-87
2023/06/30 11:02:57;;;;;;;17.50;12.80;;;27.50;50.80;;;;;;5066648;28;20459;-86
2023/06/30 11:05:25;;;;;;;19.37;13.53;;;27.50;51.40;;;;;;5058061;28;20431;-85
2023/06/30 11:08:04;;;;;;;22.97;13.30;;;27.70;51.40;;;;;;5075046;28;20440;-86
2023/06/30 11:10:38;;;;;;;25.73;16.20;;;27.60;51.70;;;;;;5076575;28;20534;-85
2023/06/30 11:13:09;;;;;;;20.97;15.07;;;27.40;51.40;;;;;;5076100;28;20466;-87
2023/06/30 11:15:38;;;;;;;26.97;16.27;;;27.30;51.40;;;;;;5073164;28;20539;-86
2023/06/30 11:18:07;;;;;;;23.43;15.90;;;27.50;51.50;;;;;;5077839;28;20464;-86
2023/06/30 11:20:34;;;;;;;24.10;16.00;;;27.70;51.00;;;;;;5091205;28;21035;-86
2023/06/30 11:23:04;;;;;;;26.67;17.93;;;27.80;52.00;;;;;;5071031;28;20459;-86
2023/06/30 11:25:32;;;;;;;25.13;16.42;;;28.00;51.30;;;;;;5107510;27;20480;-87
2023/06/30 11:28:02;;;;;;;24.90;15.23;;;28.20;51.10;;;;;;5099359;28;20216;-86
2023/06/30 11:30:34;;;;;;;24.70;16.17;;;28.30;51.10;;;;;;5057465;28;20819;-89
2023/06/30 11:33:01;;;;;;;19.13;13.33;;;28.10;50.40;;;;;;5063602;28;20997;-87
2023/06/30 11:35:29;;;;;;;20.50;12.90;;;27.60;51.10;;;;;;5055417;28;20460;-86
2023/06/30 11:37:56;;;;;;;20.83;13.17;;;27.30;52.10;;;;;;5073224;28;20227;-86
2023/06/30 11:40:27;;;;;;;18.90;12.37;;;27.50;52.50;;;;;;5051023;28;20458;-85
2023/06/30 11:42:54;;;;;;;18.57;13.03;;;27.80;52.20;;;;;;5066549;28;20539;-85
2023/06/30 11:45:27;;;;;;;17.63;12.40;;;27.80;51.10;;;;;;5050923;28;20824;-87
2023/06/30 11:47:54;;;;;;;18.30;12.02;;;27.90;51.20;;;;;;5066607;28;20445;-86
2023/06/30 11:50:21;;;;;;;17.90;11.70;;;27.60;51.30;;;;;;5061091;28;20201;-85
2023/06/30 11:52:49;;;;;;;17.57;11.00;;;27.30;51.70;;;;;;5050576;28;20485;-86
2023/06/30 11:55:17;;;;;;;16.37;10.57;;;27.30;52.20;;;;;;5068288;28;20452;-85
2023/06/30 11:57:47;;;;;;;14.70;10.37;;;27.30;51.80;;;;;;5066684;28;20532;-87
2023/06/30 12:00:16;;;;;;;17.27;9.93;;;27.30;52.80;;;;;;5059835;28;20455;-86
2023/06/30 12:02:59;;;;;;;16.07;10.30;;;27.40;52.00;;;;;;5064855;28;20467;-88
2023/06/30 12:05:28;;;;;;;14.10;10.20;;;27.20;52.10;;;;;;5054657;28;20957;-88
2023/06/30 12:07:57;;;;;;;14.73;9.90;;;26.90;52.70;;;;;;5069037;28;21251;-86
2023/06/30 12:10:36;;;;;;;14.47;8.97;;;26.50;53.00;;;;;;5098628;28;20443;-86
2023/06/30 12:13:06;;;;;;;14.60;9.13;;;26.40;54.00;;;;;;5068855;28;20724;-87
2023/06/30 12:15:35;;;;;;;11.70;8.50;;;26.60;53.90;;;;;;5082896;28;20439;-85
2023/06/30 12:18:04;;;;;;;11.70;8.67;;;26.70;53.40;;;;;;5050225;28;20457;-87
2023/06/30 12:20:34;;;;;;;17.60;7.60;;;26.90;52.90;;;;;;5111294;27;20496;-87
2023/06/30 12:23:02;;;;;;;13.10;8.40;;;27.10;52.90;;;;;;5062322;28;20536;-86
2023/06/30 12:25:34;;;;;;;13.70;8.50;;;27.30;52.30;;;;;;5053084;28;21058;-86
2023/06/30 12:28:05;;;;;;;13.77;7.90;;;27.40;52.30;;;;;;5096002;28;20448;-88
2023/06/30 12:30:33;;;;;;;16.10;9.07;;;27.20;51.70;;;;;;5050447;28;20465;-86
2023/06/30 12:33:01;;;;;;;12.17;8.87;;;27.10;52.40;;;;;;5084401;28;20616;-86
2023/06/30 12:35:29;;;;;;;13.40;9.33;;;27.00;53.30;;;;;;5058452;28;20527;-86
2023/06/30 12:37:57;;;;;;;14.13;8.17;;;26.90;52.70;;;;;;5080127;28;20491;-86
2023/06/30 12:40:24;;;;;;;11.40;8.33;;;26.90;52.70;;;;;;5083505;28;20479;-87
2023/06/30 12:42:53;;;;;;;13.40;7.57;;;26.90;53.80;;;;;;5079243;28;20578;-85
2023/06/30 12:45:21;;;;;;;9.23;7.20;;;27.50;52.60;;;;;;5080359;28;20440;-86